sensor_id;sensor_type;location;lat;lon;timestamp;pressure;altitude;pressure_sealevel;temperature;humidity
75188;BME280;63762;51.334;22.108;2023-01-10T00:00:09;100775.91;;;7.59;75.56
75188;BME280;63762;51.334;22.108;2023-01-10T00:10:15;100767.01;;;7.58;75.68
75188;BME280;63762;51.334;22.108;2023-01-10T00:20:22;100792.08;;;7.57;75.72
75188;BME280;63762;51.334;22.108;2023-01-10T00:30:29;100798.56;;;7.53;75.95
75188;BME280;63762;51.334;22.108;2023-01-10T00:40:36;100807.66;;;7.51;76.36
75188;BME280;63762;51.334;22.108;2023-01-10T00:50:44;100817.51;;;7.50;76.47
75188;BME280;63762;51.334;22.108;2023-01-10T01:00:51;100834.64;;;7.48;76.27
75188;BME280;63762;51.334;22.108;2023-01-10T01:10:58;100830.35;;;7.45;76.09
75188;BME280;63762;51.334;22.108;2023-01-10T01:21:06;100834.00;;;7.44;76.09
75188;BME280;63762;51.334;22.108;2023-01-10T01:31:12;100844.13;;;7.39;76.10
75188;BME280;63762;51.334;22.108;2023-01-10T01:41:19;100842.62;;;7.35;76.27
75188;BME280;63762;51.334;22.108;2023-01-10T01:51:33;100851.58;;;7.34;76.56
75188;BME280;63762;51.334;22.108;2023-01-10T02:01:36;100856.18;;;7.32;76.62
75188;BME280;63762;51.334;22.108;2023-01-10T02:11:41;100869.08;;;7.26;76.62
75188;BME280;63762;51.334;22.108;2023-01-10T02:42:26;100883.52;;;7.23;77.27
75188;BME280;63762;51.334;22.108;2023-01-10T02:52:30;100888.01;;;7.23;77.14
75188;BME280;63762;51.334;22.108;2023-01-10T03:12:50;100885.16;;;7.12;77.49
75188;BME280;63762;51.334;22.108;2023-01-10T03:22:57;100887.93;;;7.10;77.59
75188;BME280;63762;51.334;22.108;2023-01-10T03:33:02;100908.18;;;7.14;77.36
75188;BME280;63762;51.334;22.108;2023-01-10T03:43:14;100910.02;;;7.14;77.69
75188;BME280;63762;51.334;22.108;2023-01-10T03:53:26;100910.12;;;7.12;78.01
75188;BME280;63762;51.334;22.108;2023-01-10T04:03:27;100933.22;;;7.13;78.07
75188;BME280;63762;51.334;22.108;2023-01-10T04:13:28;100927.27;;;7.08;77.97
75188;BME280;63762;51.334;22.108;2023-01-10T04:23:29;100953.39;;;7.05;78.33
75188;BME280;63762;51.334;22.108;2023-01-10T04:33:30;100955.65;;;6.97;79.29
75188;BME280;63762;51.334;22.108;2023-01-10T04:43:32;100979.06;;;6.93;79.85
75188;BME280;63762;51.334;22.108;2023-01-10T04:53:35;101001.21;;;6.95;79.88
75188;BME280;63762;51.334;22.108;2023-01-10T05:03:42;101021.58;;;6.98;80.62
75188;BME280;63762;51.334;22.108;2023-01-10T05:13:49;101022.42;;;6.98;80.75
75188;BME280;63762;51.334;22.108;2023-01-10T05:23:57;101032.38;;;6.96;81.09
75188;BME280;63762;51.334;22.108;2023-01-10T05:34:03;101044.96;;;6.94;81.72
75188;BME280;63762;51.334;22.108;2023-01-10T05:44:10;101066.90;;;6.85;82.70
75188;BME280;63762;51.334;22.108;2023-01-10T05:54:18;101077.02;;;6.80;83.38
75188;BME280;63762;51.334;22.108;2023-01-10T06:04:25;101077.02;;;6.80;83.61
75188;BME280;63762;51.334;22.108;2023-01-10T06:14:32;101091.70;;;6.73;84.14
75188;BME280;63762;51.334;22.108;2023-01-10T06:24:39;101094.16;;;6.76;84.23
75188;BME280;63762;51.334;22.108;2023-01-10T06:34:46;101116.08;;;6.82;84.06
75188;BME280;63762;51.334;22.108;2023-01-10T06:44:53;101132.38;;;6.78;84.42
75188;BME280;63762;51.334;22.108;2023-01-10T06:55:00;101139.45;;;6.79;84.52
75188;BME280;63762;51.334;22.108;2023-01-10T07:05:08;101153.87;;;6.76;84.56
75188;BME280;63762;51.334;22.108;2023-01-10T07:15:15;101174.38;;;6.76;84.62
75188;BME280;63762;51.334;22.108;2023-01-10T07:25:24;101175.88;;;6.81;84.38
75188;BME280;63762;51.334;22.108;2023-01-10T07:35:29;101177.41;;;6.85;84.13
75188;BME280;63762;51.334;22.108;2023-01-10T07:45:36;101195.25;;;6.85;84.07
75188;BME280;63762;51.334;22.108;2023-01-10T07:55:43;101210.20;;;6.89;84.05
75188;BME280;63762;51.334;22.108;2023-01-10T08:05:59;101226.42;;;6.86;82.79
75188;BME280;63762;51.334;22.108;2023-01-10T08:16:04;101222.17;;;6.82;83.03
75188;BME280;63762;51.334;22.108;2023-01-10T08:26:06;101244.52;;;6.81;82.10
75188;BME280;63762;51.334;22.108;2023-01-10T08:36:16;101254.34;;;6.80;82.31
75188;BME280;63762;51.334;22.108;2023-01-10T08:46:19;101262.27;;;6.82;82.32
75188;BME280;63762;51.334;22.108;2023-01-10T08:56:26;101274.90;;;6.80;81.95
75188;BME280;63762;51.334;22.108;2023-01-10T09:06:33;101276.60;;;6.81;81.97
75188;BME280;63762;51.334;22.108;2023-01-10T09:16:40;101274.90;;;6.80;82.05
75188;BME280;63762;51.334;22.108;2023-01-10T09:26:48;101273.51;;;6.73;82.48
75188;BME280;63762;51.334;22.108;2023-01-10T09:36:55;101286.09;;;6.71;82.68
75188;BME280;63762;51.334;22.108;2023-01-10T09:57:19;101290.23;;;6.76;82.70
75188;BME280;63762;51.334;22.108;2023-01-10T10:07:21;101290.23;;;6.76;82.96
75188;BME280;63762;51.334;22.108;2023-01-10T10:37:54;101310.48;;;6.65;82.97
75188;BME280;63762;51.334;22.108;2023-01-10T10:48:11;101306.02;;;6.65;83.82
75188;BME280;63762;51.334;22.108;2023-01-10T10:58:11;101312.44;;;6.61;83.64
75188;BME280;63762;51.334;22.108;2023-01-10T11:08:16;101332.66;;;6.67;83.62
75188;BME280;63762;51.334;22.108;2023-01-10T11:18:20;101355.77;;;6.68;83.50
75188;BME280;63762;51.334;22.108;2023-01-10T11:28:27;101353.89;;;6.70;83.47
75188;BME280;63762;51.334;22.108;2023-01-10T11:38:29;101361.74;;;6.73;83.04
75188;BME280;63762;51.334;22.108;2023-01-10T11:58:44;101386.81;;;6.70;82.50
75188;BME280;63762;51.334;22.108;2023-01-10T12:08:45;101412.07;;;6.65;82.98
75188;BME280;63762;51.334;22.108;2023-01-10T12:18:51;101430.42;;;6.55;82.98
75188;BME280;63762;51.334;22.108;2023-01-10T12:29:00;101425.15;;;6.54;83.17
75188;BME280;63762;51.334;22.108;2023-01-10T12:49:41;101472.46;;;6.52;82.94
75188;BME280;63762;51.334;22.108;2023-01-10T12:59:34;101494.88;;;6.49;82.98
75188;BME280;63762;51.334;22.108;2023-01-10T13:09:40;101499.27;;;6.50;83.15
75188;BME280;63762;51.334;22.108;2023-01-10T13:19:42;101522.06;;;6.57;82.84
75188;BME280;63762;51.334;22.108;2023-01-10T13:29:43;101540.24;;;6.51;82.80
75188;BME280;63762;51.334;22.108;2023-01-10T13:39:55;101545.80;;;6.46;83.10
75188;BME280;63762;51.334;22.108;2023-01-10T13:49:57;101544.78;;;6.49;83.35
75188;BME280;63762;51.334;22.108;2023-01-10T14:13:21;101578.59;;;6.50;83.27
75188;BME280;63762;51.334;22.108;2023-01-10T14:23:33;101589.05;;;6.54;82.84
75188;BME280;63762;51.334;22.108;2023-01-10T14:33:36;101601.64;;;6.52;82.91
75188;BME280;63762;51.334;22.108;2023-01-10T14:43:48;101612.20;;;6.55;82.93
75188;BME280;63762;51.334;22.108;2023-01-10T14:54:02;101640.58;;;6.58;82.69
75188;BME280;63762;51.334;22.108;2023-01-10T15:04:04;101632.55;;;6.58;82.43
75188;BME280;63762;51.334;22.108;2023-01-10T15:14:06;101624.90;;;6.50;82.92
75188;BME280;63762;51.334;22.108;2023-01-10T15:34:29;101644.12;;;6.40;83.30
75188;BME280;63762;51.334;22.108;2023-01-10T15:44:42;101628.37;;;6.34;83.21
75188;BME280;63762;51.334;22.108;2023-01-10T15:54:44;101631.36;;;6.28;84.01
75188;BME280;63762;51.334;22.108;2023-01-10T16:04:47;101663.44;;;6.28;83.27
75188;BME280;63762;51.334;22.108;2023-01-10T16:14:49;101661.03;;;6.22;83.68
75188;BME280;63762;51.334;22.108;2023-01-10T16:24:50;101673.30;;;6.26;83.80
75188;BME280;63762;51.334;22.108;2023-01-10T16:34:54;101697.98;;;6.31;83.67
75188;BME280;63762;51.334;22.108;2023-01-10T16:45:01;101711.53;;;6.28;83.77
75188;BME280;63762;51.334;22.108;2023-01-10T16:55:14;101729.48;;;6.24;83.95
75188;BME280;63762;51.334;22.108;2023-01-10T17:05:16;101741.77;;;6.28;83.76
75188;BME280;63762;51.334;22.108;2023-01-10T17:15:23;101757.59;;;6.33;83.69
75188;BME280;63762;51.334;22.108;2023-01-10T17:25:30;101777.75;;;6.40;83.51
75188;BME280;63762;51.334;22.108;2023-01-10T17:35:41;101784.92;;;6.39;83.26
75188;BME280;63762;51.334;22.108;2023-01-10T17:45:46;101778.63;;;6.40;83.45
75188;BME280;63762;51.334;22.108;2023-01-10T17:55:52;101805.43;;;6.39;83.33
75188;BME280;63762;51.334;22.108;2023-01-10T18:05:59;101831.47;;;6.34;83.53
75188;BME280;63762;51.334;22.108;2023-01-10T18:16:06;101830.43;;;6.38;83.65
75188;BME280;63762;51.334;22.108;2023-01-10T18:26:13;101827.88;;;6.35;83.51
75188;BME280;63762;51.334;22.108;2023-01-10T18:36:21;101842.45;;;6.28;84.00
75188;BME280;63762;51.334;22.108;2023-01-10T18:46:27;101851.66;;;6.21;84.23
75188;BME280;63762;51.334;22.108;2023-01-10T18:56:34;101869.09;;;6.09;84.70
75188;BME280;63762;51.334;22.108;2023-01-10T19:06:41;101868.88;;;5.94;85.31
75188;BME280;63762;51.334;22.108;2023-01-10T19:16:48;101870.27;;;5.82;85.72
75188;BME280;63762;51.334;22.108;2023-01-10T19:26:55;101883.01;;;5.74;86.35
75188;BME280;63762;51.334;22.108;2023-01-10T19:37:02;101889.99;;;5.78;86.20
75188;BME280;63762;51.334;22.108;2023-01-10T19:47:10;101900.67;;;5.78;86.08
75188;BME280;63762;51.334;22.108;2023-01-10T19:57:17;101910.31;;;5.82;86.19
75188;BME280;63762;51.334;22.108;2023-01-10T20:07:24;101920.81;;;5.87;85.81
75188;BME280;63762;51.334;22.108;2023-01-10T20:17:31;101938.91;;;5.79;85.95
75188;BME280;63762;51.334;22.108;2023-01-10T20:27:38;101940.58;;;5.83;85.96
75188;BME280;63762;51.334;22.108;2023-01-10T20:37:45;101954.71;;;5.85;85.72
75188;BME280;63762;51.334;22.108;2023-01-10T20:47:52;101965.52;;;5.82;85.79
75188;BME280;63762;51.334;22.108;2023-01-10T20:58:00;101972.13;;;5.72;86.01
75188;BME280;63762;51.334;22.108;2023-01-10T21:08:07;101990.92;;;5.69;85.84
75188;BME280;63762;51.334;22.108;2023-01-10T21:18:14;101995.48;;;5.67;85.89
75188;BME280;63762;51.334;22.108;2023-01-10T21:28:21;101989.33;;;5.65;85.69
75188;BME280;63762;51.334;22.108;2023-01-10T21:38:28;101999.73;;;5.49;86.24
75188;BME280;63762;51.334;22.108;2023-01-10T21:48:35;102024.77;;;5.45;86.17
75188;BME280;63762;51.334;22.108;2023-01-10T21:58:42;102009.02;;;5.39;86.30
75188;BME280;63762;51.334;22.108;2023-01-10T22:08:50;102011.48;;;5.44;85.93
75188;BME280;63762;51.334;22.108;2023-01-10T22:18:57;102013.38;;;5.42;85.67
75188;BME280;63762;51.334;22.108;2023-01-10T22:29:04;102024.98;;;5.16;86.19
75188;BME280;63762;51.334;22.108;2023-01-10T22:39:11;102028.07;;;5.06;86.69
75188;BME280;63762;51.334;22.108;2023-01-10T22:49:19;102028.98;;;5.05;86.33
75188;BME280;63762;51.334;22.108;2023-01-10T22:59:25;102050.77;;;4.93;86.68
75188;BME280;63762;51.334;22.108;2023-01-10T23:09:33;102044.60;;;4.91;86.75
75188;BME280;63762;51.334;22.108;2023-01-10T23:19:39;102052.82;;;4.85;86.82
75188;BME280;63762;51.334;22.108;2023-01-10T23:29:47;102049.46;;;4.80;86.59
75188;BME280;63762;51.334;22.108;2023-01-10T23:39:54;102059.14;;;4.82;86.38
75188;BME280;63762;51.334;22.108;2023-01-10T23:50:01;102058.61;;;4.71;86.62
